createdAt,value
2023-01-12T06:56:07.944Z,99.99
2023-01-12T06:57:07.931Z,99.99
2023-01-12T06:58:07.927Z,99.99
2023-01-12T06:59:07.909Z,99.99
2023-01-12T07:00:07.909Z,99.99
2023-01-12T07:01:08.080Z,99.99
2023-01-12T07:02:07.906Z,99.99
2023-01-12T07:03:07.865Z,99.99
2023-01-12T07:04:07.906Z,99.99
2023-01-12T07:05:07.871Z,99.99
2023-01-12T07:06:07.849Z,99.99
2023-01-12T07:07:07.833Z,99.99
2023-01-12T07:08:07.820Z,99.99
2023-01-12T07:09:07.812Z,99.99
2023-01-12T07:10:07.797Z,99.99
2023-01-12T07:11:07.811Z,99.99
2023-01-12T07:12:07.785Z,99.99
2023-01-12T07:13:07.770Z,99.99
2023-01-12T07:14:09.209Z,99.99
2023-01-12T07:15:07.748Z,99.99
2023-01-12T07:16:07.791Z,99.99
2023-01-12T07:17:07.731Z,99.99
2023-01-12T07:18:07.724Z,99.99
2023-01-12T07:19:07.725Z,99.99
2023-01-12T07:20:07.702Z,99.99
2023-01-12T07:21:07.709Z,99.99
2023-01-12T07:22:07.678Z,99.99
2023-01-12T07:23:07.668Z,99.99
2023-01-12T07:24:07.657Z,99.99
2023-01-12T07:25:07.650Z,99.99
2023-01-12T07:26:07.635Z,99.99
2023-01-12T07:27:07.631Z,99.99
2023-01-12T07:28:07.616Z,99.99
2023-01-12T07:29:07.602Z,99.99
2023-01-12T07:30:07.597Z,99.99
2023-01-12T07:31:07.647Z,99.99
2023-01-12T07:32:07.573Z,99.99
2023-01-12T07:33:07.563Z,99.99
2023-01-12T07:34:07.558Z,99.99
2023-01-12T07:35:07.542Z,99.99
2023-01-12T07:36:07.535Z,99.99
2023-01-12T07:37:07.552Z,99.99
2023-01-12T07:38:07.515Z,99.99
2023-01-12T07:39:07.521Z,99.99
2023-01-12T07:40:07.544Z,99.99
2023-01-12T07:41:07.532Z,99.99
2023-01-12T07:42:07.474Z,99.99
2023-01-12T07:43:07.463Z,99.99
2023-01-12T07:44:07.469Z,99.99
2023-01-12T07:45:07.447Z,99.99
2023-01-12T07:46:07.476Z,99.99
2023-01-12T07:47:07.424Z,99.99
2023-01-12T07:48:07.408Z,99.99
2023-01-12T07:49:07.403Z,99.99
2023-01-12T07:50:07.398Z,99.99
2023-01-12T07:51:07.379Z,99.99
2023-01-12T07:52:07.368Z,99.99
2023-01-12T07:53:07.392Z,99.99
2023-01-12T07:54:07.358Z,99.99
2023-01-12T07:55:07.337Z,98.37
2023-01-12T07:56:07.330Z,97.29
2023-01-12T07:57:07.319Z,96.00
2023-01-12T07:58:07.319Z,93.88
2023-01-12T07:59:07.298Z,91.86
2023-01-12T08:00:07.299Z,89.78
2023-01-12T08:01:07.287Z,88.71
2023-01-12T08:02:07.340Z,89.75
2023-01-12T08:03:07.268Z,90.06
2023-01-12T08:04:07.247Z,88.77
2023-01-12T08:05:07.243Z,86.07
2023-01-12T08:06:07.224Z,85.14
2023-01-12T08:07:07.215Z,83.58
2023-01-12T08:08:07.202Z,80.95
2023-01-12T08:09:07.226Z,78.43
2023-01-12T08:10:07.201Z,76.98
2023-01-12T08:11:07.175Z,75.53
2023-01-12T08:12:07.170Z,73.73
2023-01-12T08:13:07.159Z,72.39
2023-01-12T08:14:07.143Z,69.87
2023-01-12T08:15:07.135Z,68.53
2023-01-12T08:16:07.143Z,68.11
2023-01-12T08:17:07.112Z,68.90
2023-01-12T08:18:07.102Z,66.60
2023-01-12T08:19:07.088Z,64.60
2023-01-12T08:20:07.081Z,64.16
2023-01-12T08:21:07.069Z,63.72
2023-01-12T08:22:07.063Z,63.51
2023-01-12T08:23:07.047Z,62.17
2023-01-12T08:24:07.035Z,61.03
2023-01-12T08:25:07.050Z,61.65
2023-01-12T08:26:07.020Z,60.31
2023-01-12T08:27:07.002Z,59.14
2023-01-12T08:28:07.025Z,59.04
2023-01-12T08:29:06.986Z,58.60
2023-01-12T08:30:06.971Z,57.44
2023-01-12T08:31:06.999Z,56.31
2023-01-12T08:33:06.957Z,56.18
2023-01-12T08:34:06.932Z,55.84
2023-01-12T08:35:06.935Z,55.02
2023-01-12T08:36:06.911Z,54.68
2023-01-12T08:37:06.901Z,53.65
2023-01-12T08:38:06.890Z,53.01
2023-01-12T08:39:06.894Z,53.63
2023-01-12T08:40:06.879Z,54.22
2023-01-12T08:41:06.912Z,54.66
2023-01-12T08:42:06.861Z,55.07
2023-01-12T08:43:06.837Z,55.48
2023-01-12T08:44:06.829Z,55.69
2023-01-12T08:45:06.821Z,55.30
2023-01-12T08:46:06.809Z,56.64
2023-01-12T08:47:06.795Z,55.82
2023-01-12T08:48:06.788Z,55.89
2023-01-12T08:49:06.776Z,56.61
2023-01-12T08:50:06.770Z,57.77
2023-01-12T08:51:06.763Z,59.45
2023-01-12T08:52:06.744Z,61.57
2023-01-12T08:53:06.740Z,63.56
2023-01-12T08:54:06.731Z,67.23
2023-01-12T08:55:06.716Z,67.64
2023-01-12T08:56:06.706Z,66.85
2023-01-12T08:57:06.739Z,66.40
2023-01-12T08:58:06.686Z,67.05
2023-01-12T08:59:06.669Z,67.47
2023-01-12T09:00:06.670Z,68.40
2023-01-12T09:01:06.831Z,67.88
2023-01-12T09:02:06.851Z,68.06
2023-01-12T09:03:06.633Z,66.37
2023-01-12T09:04:06.620Z,64.72
2023-01-12T09:05:06.608Z,63.69
2023-01-12T09:06:06.597Z,63.59
2023-01-12T09:07:06.591Z,63.69
2023-01-12T09:08:06.583Z,63.61
2023-01-12T09:09:06.570Z,63.61
2023-01-12T09:10:06.554Z,64.34
2023-01-12T09:11:06.544Z,64.75
2023-01-12T09:12:06.539Z,64.00
2023-01-12T09:13:06.549Z,63.76
2023-01-12T09:14:06.524Z,61.71
2023-01-12T09:15:06.506Z,60.04
2023-01-12T09:16:12.657Z,58.67
2023-01-12T09:17:07.504Z,57.31
2023-01-12T09:18:06.482Z,57.95
2023-01-12T09:19:06.458Z,58.85
2023-01-12T09:20:06.457Z,59.47
2023-01-12T09:21:06.449Z,61.73
2023-01-12T09:22:06.434Z,62.63
2023-01-12T09:23:06.429Z,60.27
2023-01-12T09:24:06.406Z,59.36
2023-01-12T09:25:06.403Z,61.87
2023-01-12T09:26:06.395Z,62.82
2023-01-12T09:27:06.381Z,63.26
2023-01-12T09:28:06.390Z,63.67
2023-01-12T09:29:06.388Z,69.17
2023-01-12T09:30:06.353Z,70.41
2023-01-12T09:31:06.338Z,68.42
2023-01-12T09:32:06.325Z,65.91
2023-01-12T09:33:06.319Z,64.57
2023-01-12T09:34:06.304Z,63.75
2023-01-12T09:35:06.300Z,65.74
2023-01-12T09:36:06.287Z,63.50
2023-01-12T09:37:06.276Z,63.53
2023-01-12T09:38:06.269Z,63.76
2023-01-12T09:39:09.825Z,65.55
2023-01-12T09:40:06.246Z,73.70
2023-01-12T09:41:06.233Z,77.52
2023-01-12T09:42:06.234Z,77.80
2023-01-12T09:43:06.213Z,78.90
2023-01-12T09:44:06.208Z,77.66
2023-01-12T09:45:06.239Z,77.34
2023-01-12T09:46:06.246Z,76.83
2023-01-12T09:47:06.180Z,77.76
2023-01-12T09:48:06.171Z,78.48
2023-01-12T09:49:06.152Z,75.56
2023-01-12T09:50:10.133Z,73.05
2023-01-12T09:51:06.133Z,72.54
2023-01-12T09:52:06.123Z,71.50
2023-01-12T09:53:06.111Z,70.99
2023-01-12T09:54:06.107Z,72.60
2023-01-12T09:55:06.086Z,73.46
2023-01-12T09:56:06.077Z,76.83
2023-01-12T09:57:06.074Z,77.80
2023-01-12T09:58:06.209Z,79.07
2023-01-12T09:59:06.047Z,74.04
2023-01-12T10:00:06.041Z,74.77
2023-01-12T10:01:06.333Z,81.86
2023-01-12T10:02:06.095Z,78.17
2023-01-12T10:03:06.132Z,69.51
2023-01-12T10:04:05.993Z,65.30
2023-01-12T10:05:05.989Z,60.59
2023-01-12T10:06:05.981Z,57.69
2023-01-12T10:07:05.961Z,56.46
2023-01-12T10:08:05.958Z,56.46
2023-01-12T10:09:05.959Z,58.54
2023-01-12T10:10:05.936Z,57.40
2023-01-12T10:11:05.923Z,56.10
2023-01-12T10:12:05.933Z,54.43
2023-01-12T10:13:05.902Z,52.97
2023-01-12T10:14:05.897Z,53.22
2023-01-12T10:15:05.879Z,53.69
2023-01-12T10:16:05.985Z,53.48
2023-01-12T10:17:05.903Z,56.59
2023-01-12T10:18:05.848Z,58.72
2023-01-12T10:19:08.141Z,56.38
2023-01-12T10:20:05.831Z,54.15
2023-01-12T10:21:05.818Z,53.49
2023-01-12T10:22:07.734Z,52.08
2023-01-12T10:23:05.796Z,49.67
2023-01-12T10:24:05.789Z,47.96
2023-01-12T10:25:05.775Z,46.52
2023-01-12T10:26:05.762Z,45.76
2023-01-12T10:27:05.754Z,44.93
2023-01-12T10:28:05.745Z,44.03
2023-01-12T10:29:05.733Z,44.32
2023-01-12T10:30:05.720Z,42.32
2023-01-12T10:31:05.718Z,44.44
2023-01-12T10:32:05.701Z,45.47
2023-01-12T10:33:05.713Z,45.61
2023-01-12T10:34:05.702Z,47.52
2023-01-12T10:35:05.672Z,48.33
2023-01-12T10:36:05.667Z,49.59
2023-01-12T10:37:05.651Z,50.61
2023-01-12T10:38:05.641Z,52.17
2023-01-12T10:39:05.638Z,54.30
2023-01-12T10:40:05.629Z,53.64
2023-01-12T10:41:05.607Z,53.23
2023-01-12T10:42:05.602Z,52.51
2023-01-12T10:43:09.474Z,52.92
2023-01-12T10:44:06.614Z,52.23
2023-01-12T10:45:05.569Z,49.26
2023-01-12T10:46:05.615Z,48.27
2023-01-12T10:47:05.542Z,46.78
2023-01-12T10:48:05.538Z,46.02
2023-01-12T10:49:05.558Z,45.47
2023-01-12T10:50:05.516Z,45.58
2023-01-12T10:51:05.513Z,44.43
2023-01-12T10:52:05.492Z,44.21
2023-01-12T10:53:05.485Z,43.16
2023-01-12T10:54:05.471Z,42.93
2023-01-12T10:55:05.458Z,41.90
2023-01-12T10:56:05.454Z,41.07
2023-01-12T10:57:05.439Z,41.16
2023-01-12T10:58:05.432Z,40.73
2023-01-12T10:59:05.433Z,41.07
2023-01-12T11:00:05.414Z,41.80
2023-01-12T11:01:05.524Z,40.85
2023-01-12T11:02:53.503Z,40.22
2023-01-12T11:03:05.408Z,40.22
2023-01-12T11:06:25.190Z,39.89
2023-01-12T11:06:26.612Z,38.96
2023-01-12T11:07:26.611Z,38.87
2023-01-12T11:08:26.594Z,39.06
2023-01-12T11:09:26.586Z,38.78
2023-01-12T11:10:26.574Z,38.47
2023-01-12T11:11:26.566Z,38.78
2023-01-12T11:12:29.344Z,39.36
2023-01-12T11:13:26.555Z,39.94
2023-01-12T11:14:26.532Z,40.77
2023-01-12T11:15:26.527Z,42.02
2023-01-12T11:16:26.541Z,41.90
2023-01-12T11:17:26.501Z,40.85
2023-01-12T11:20:10.728Z,39.76
2023-01-12T11:20:12.147Z,42.00
2023-01-12T11:21:12.135Z,43.12
2023-01-12T11:22:12.153Z,43.18
2023-01-12T11:23:12.120Z,41.40
2023-01-12T11:24:12.101Z,41.21
2023-01-12T11:25:12.092Z,40.99
2023-01-12T11:26:37.145Z,38.80
2023-01-12T11:31:52.582Z,38.17
2023-01-12T11:31:53.998Z,40.16
2023-01-12T11:58:44.373Z,41.68
2023-01-12T11:58:45.801Z,41.76
2023-01-12T11:59:49.273Z,43.04
2023-01-12T12:23:17.080Z,43.32
2023-01-12T12:23:18.509Z,33.02
2023-01-12T12:24:18.485Z,32.59
2023-01-12T12:25:18.472Z,38.21
2023-01-12T12:32:51.403Z,37.50
2023-01-12T12:32:52.817Z,34.99
2023-01-12T12:33:52.806Z,34.36
2023-01-12T12:34:52.806Z,33.64
2023-01-12T12:35:52.792Z,32.95
2023-01-12T12:36:52.781Z,34.45
2023-01-12T12:37:52.778Z,37.08
2023-01-12T12:38:52.788Z,39.70
2023-01-12T12:39:52.774Z,41.71
2023-01-12T12:40:52.737Z,42.26
2023-01-12T12:41:52.732Z,44.85
2023-01-12T12:42:52.720Z,43.54
2023-01-12T12:43:52.710Z,46.02
2023-01-12T12:44:52.694Z,47.36
2023-01-12T12:45:52.760Z,48.49
2023-01-12T12:46:52.679Z,48.28
2023-01-12T12:47:52.681Z,49.18
2023-01-12T12:48:52.677Z,47.91
2023-01-12T12:49:52.650Z,47.25
2023-01-12T12:51:45.612Z,45.25
2023-01-12T12:51:52.629Z,44.40
2023-01-12T12:52:52.621Z,42.51
2023-01-12T12:54:57.303Z,40.44
2023-01-12T12:54:58.721Z,38.56
2023-01-12T12:55:58.720Z,39.66
2023-01-12T12:56:58.702Z,39.66
2023-01-12T12:57:58.689Z,40.71
2023-01-12T12:58:58.683Z,40.71
2023-01-12T12:59:58.717Z,39.31
2023-01-12T13:01:48.694Z,40.68
2023-01-12T13:01:58.728Z,41.90
2023-01-12T13:02:58.823Z,41.29
2023-01-12T13:11:41.536Z,42.41
2023-01-12T13:11:42.963Z,36.90
2023-01-12T13:12:42.951Z,36.12
2023-01-12T13:14:25.300Z,37.66
2023-01-12T13:14:42.923Z,38.24
2023-01-12T13:15:42.991Z,36.96
2023-01-12T13:16:42.911Z,37.06
2023-01-12T13:17:42.911Z,35.91
2023-01-12T13:18:42.888Z,35.19
2023-01-12T13:19:42.875Z,34.95
2023-01-12T13:20:42.868Z,34.94
2023-01-12T13:21:42.887Z,35.02
2023-01-12T13:22:42.850Z,35.14
2023-01-12T13:23:42.839Z,35.93
2023-01-12T13:24:42.830Z,35.12
2023-01-12T13:25:42.818Z,35.72
2023-01-12T13:26:42.815Z,36.03
2023-01-12T13:27:42.833Z,36.05
2023-01-12T13:28:42.787Z,38.09
2023-01-12T13:29:42.773Z,36.67
2023-01-12T13:30:42.767Z,36.27
2023-01-12T13:31:42.756Z,38.22
2023-01-12T13:32:42.765Z,39.17
2023-01-12T13:33:42.739Z,39.80
2023-01-12T13:34:42.721Z,41.32
2023-01-12T13:35:42.715Z,40.12
2023-01-12T13:36:42.705Z,42.00
2023-01-12T13:37:42.695Z,42.26
2023-01-12T13:38:42.689Z,42.52
2023-01-12T13:39:42.676Z,43.40
2023-01-12T13:40:42.775Z,44.44
2023-01-12T13:41:43.700Z,45.05
2023-01-12T13:42:42.643Z,44.50
2023-01-12T13:43:42.663Z,44.21
2023-01-12T13:44:42.636Z,41.90
2023-01-12T13:45:42.618Z,40.34
2023-01-12T13:46:42.646Z,40.02
2023-01-12T13:47:42.598Z,38.76
2023-01-12T13:48:42.593Z,39.02
2023-01-12T13:49:42.576Z,41.02
2023-01-12T13:50:42.606Z,42.24
2023-01-12T13:51:42.550Z,43.18
2023-01-12T13:52:42.543Z,42.35
2023-01-12T13:53:42.542Z,41.60
2023-01-12T13:54:42.521Z,40.85
2023-01-12T13:55:42.522Z,40.54
2023-01-12T13:56:42.512Z,39.41
2023-01-12T13:57:42.491Z,38.68
2023-01-12T13:58:42.499Z,38.97
2023-01-12T13:59:42.502Z,38.54
2023-01-12T14:00:42.574Z,37.62
2023-01-12T14:01:42.584Z,36.81
2023-01-12T14:02:42.508Z,37.01
2023-01-12T14:03:42.435Z,37.33
2023-01-12T14:04:42.438Z,39.20
2023-01-12T14:05:42.417Z,40.32
2023-01-12T14:06:42.406Z,39.94
2023-01-12T14:07:42.400Z,41.46
2023-01-12T14:08:51.123Z,40.56
2023-01-12T14:09:43.393Z,42.21
2023-01-12T14:10:42.393Z,40.36
2023-01-12T14:11:42.349Z,40.26
2023-01-12T14:12:42.337Z,41.37
2023-01-12T14:13:42.329Z,40.78
2023-01-12T14:14:42.327Z,40.85
2023-01-12T14:15:42.429Z,39.71
2023-01-12T14:16:42.304Z,39.11
2023-01-12T14:17:43.306Z,38.78
2023-01-12T14:18:42.278Z,39.49
2023-01-12T14:19:42.278Z,40.02
2023-01-12T14:20:42.256Z,40.52
2023-01-12T14:21:42.276Z,40.34
2023-01-12T14:22:42.241Z,40.85
2023-01-12T14:23:42.228Z,40.07
2023-01-12T14:24:42.216Z,42.16
2023-01-12T14:25:42.218Z,42.02
2023-01-12T14:26:42.199Z,42.95
2023-01-12T14:27:42.185Z,43.56
2023-01-12T14:28:42.174Z,44.07
2023-01-12T14:29:42.167Z,43.77
2023-01-12T14:30:42.155Z,46.03
2023-01-12T14:31:42.246Z,45.11
2023-01-12T14:32:42.130Z,45.11
2023-01-12T14:33:42.129Z,44.58
2023-01-12T14:34:42.120Z,44.68
2023-01-12T14:35:42.105Z,43.97
2023-01-12T14:36:42.106Z,44.17
2023-01-12T14:37:42.084Z,43.97
2023-01-12T14:38:42.085Z,44.09
2023-01-12T14:39:42.085Z,43.87
2023-01-12T14:40:42.053Z,43.89
2023-01-12T14:41:42.044Z,44.00
2023-01-12T14:42:42.031Z,44.40
2023-01-12T14:43:42.019Z,44.30
2023-01-12T14:44:42.025Z,44.38
2023-01-12T14:45:41.999Z,44.68
2023-01-12T14:46:42.031Z,45.42
2023-01-12T14:47:42.039Z,45.52
2023-01-12T14:48:41.966Z,45.52
2023-01-12T14:49:41.958Z,44.99
2023-01-12T14:50:41.948Z,44.99
2023-01-12T14:51:41.947Z,44.70
2023-01-12T14:52:41.924Z,44.68
2023-01-12T14:53:41.920Z,44.99
2023-01-12T14:54:41.903Z,44.30
2023-01-12T14:55:41.895Z,44.79
2023-01-12T14:56:41.884Z,44.89
2023-01-12T14:57:41.874Z,44.58
2023-01-12T14:58:41.866Z,45.09
2023-01-12T14:59:41.855Z,44.30
2023-01-12T15:00:41.904Z,44.52
2023-01-12T15:01:42.018Z,45.75
2023-01-12T15:02:41.831Z,48.85
2023-01-12T15:03:44.064Z,49.05
2023-01-12T15:04:41.888Z,49.59
2023-01-12T15:05:41.796Z,47.14
2023-01-12T15:06:41.781Z,48.79
2023-01-12T15:07:41.775Z,50.20
2023-01-12T15:08:41.760Z,51.01
2023-01-12T15:09:41.750Z,51.52
2023-01-12T15:10:41.747Z,51.86
2023-01-12T15:11:41.730Z,53.10
2023-01-12T15:12:41.730Z,54.13
2023-01-12T15:13:41.709Z,55.07
2023-01-12T15:14:41.697Z,54.84
2023-01-12T15:15:41.688Z,55.04
2023-01-12T15:16:41.801Z,54.74
2023-01-12T15:17:41.669Z,55.45
2023-01-12T15:18:41.659Z,56.48
2023-01-12T15:19:41.736Z,55.96
2023-01-12T15:20:41.634Z,55.32
2023-01-12T15:21:41.624Z,55.12
2023-01-12T15:22:41.616Z,55.63
2023-01-12T15:23:41.606Z,55.25
2023-01-12T15:24:41.593Z,56.37
2023-01-12T15:25:41.588Z,56.37
2023-01-12T15:26:41.572Z,56.70
2023-01-12T15:27:41.567Z,57.22
2023-01-12T15:28:41.565Z,57.29
2023-01-12T15:29:41.546Z,57.29
2023-01-12T15:30:41.540Z,57.50
2023-01-12T15:31:41.606Z,57.52
2023-01-12T15:32:48.936Z,57.50
2023-01-12T15:33:42.515Z,57.09
2023-01-12T15:34:41.485Z,56.89
2023-01-12T15:35:41.504Z,56.91
2023-01-12T15:36:41.480Z,57.11
2023-01-12T15:37:41.466Z,56.93
2023-01-12T15:38:41.461Z,57.78
2023-01-12T15:39:41.433Z,57.78
2023-01-12T15:40:41.427Z,58.50
2023-01-12T15:41:41.413Z,58.29
2023-01-12T15:42:41.420Z,59.14
2023-01-12T15:43:41.394Z,60.50
2023-01-12T15:44:41.384Z,60.70
2023-01-12T15:45:41.419Z,59.47
2023-01-12T15:46:41.396Z,60.19
2023-01-12T15:47:41.351Z,60.29
2023-01-12T15:48:41.342Z,60.91
2023-01-12T15:49:41.328Z,61.21
2023-01-12T15:50:41.333Z,61.04
2023-01-12T15:51:41.354Z,60.70
2023-01-12T15:52:41.300Z,61.83
2023-01-12T15:53:41.286Z,62.91
2023-01-12T15:54:41.279Z,62.73
2023-01-12T15:55:41.272Z,63.79
2023-01-12T15:56:41.250Z,64.84
2023-01-12T15:57:41.242Z,65.80
2023-01-12T15:58:41.242Z,68.19
2023-01-12T15:59:41.230Z,68.50
2023-01-12T16:00:41.218Z,70.08
2023-01-12T16:01:41.382Z,69.04
2023-01-12T16:02:41.198Z,68.05
2023-01-12T16:04:09.589Z,67.33
2023-01-12T16:04:44.038Z,68.49
2023-01-12T16:05:41.172Z,69.86
2023-01-12T16:06:41.149Z,72.02
2023-01-12T16:07:41.170Z,74.84
2023-01-12T16:08:41.133Z,76.07
2023-01-12T16:09:41.114Z,74.98
2023-01-12T16:10:41.109Z,75.49
2023-01-12T16:11:41.097Z,74.49
2023-01-12T16:12:41.088Z,74.63
2023-01-12T16:13:41.076Z,73.60
2023-01-12T16:14:41.065Z,73.12
2023-01-12T16:15:41.067Z,71.95
2023-01-12T16:16:41.107Z,72.39
2023-01-12T16:17:41.039Z,71.88
2023-01-12T16:18:41.038Z,71.26
2023-01-12T16:19:41.204Z,71.78
2023-01-12T16:20:41.008Z,72.84
2023-01-12T16:21:40.995Z,71.81
2023-01-12T16:22:40.985Z,71.09
2023-01-12T16:23:41.000Z,70.06
2023-01-12T16:24:40.963Z,67.37
2023-01-12T16:25:40.950Z,64.48
2023-01-12T16:26:40.944Z,63.35
2023-01-12T16:27:40.950Z,62.11
2023-01-12T16:28:40.920Z,62.39
2023-01-12T16:29:40.909Z,62.42
2023-01-12T16:30:40.902Z,63.35
2023-01-12T16:31:40.910Z,62.93
2023-01-12T16:32:40.878Z,65.31
2023-01-12T16:33:40.874Z,69.26
2023-01-12T16:34:40.859Z,67.51
2023-01-12T16:35:40.850Z,65.55
2023-01-12T16:36:40.835Z,64.34
2023-01-12T16:37:40.828Z,63.61
2023-01-12T16:42:40.775Z,68.19
2023-01-12T16:43:40.761Z,71.50
2023-01-12T16:44:40.753Z,73.08
2023-01-12T16:51:40.680Z,72.46
2023-01-12T16:52:40.674Z,75.56
2023-01-12T16:53:40.652Z,74.46
2023-01-12T16:54:40.648Z,70.91
2023-01-12T16:55:40.662Z,70.84
2023-01-12T16:56:40.625Z,71.46
2023-01-12T16:57:40.616Z,71.32
2023-01-12T16:58:40.606Z,70.42
2023-01-12T18:05:42.471Z,84.19
2023-01-12T18:17:39.788Z,75.11
2023-01-12T18:23:39.759Z,74.70
2023-01-12T18:24:39.717Z,70.08
2023-01-12T18:25:41.118Z,71.08
2023-01-12T18:26:39.698Z,69.11
2023-01-12T18:27:39.693Z,72.94
2023-01-12T18:28:39.672Z,74.70
2023-01-12T18:29:39.667Z,75.94
2023-01-12T18:30:39.663Z,76.56
2023-01-12T18:31:40.871Z,77.80
2023-01-12T18:32:39.671Z,76.81
2023-01-12T18:33:39.625Z,77.94
2023-01-12T18:34:39.616Z,77.63
2023-01-12T18:35:39.603Z,77.11
2023-01-12T18:36:39.598Z,79.08
2023-01-12T18:37:39.585Z,78.46
2023-01-12T18:38:39.586Z,73.70
2023-01-12T18:53:41.110Z,77.32
2023-01-12T18:54:39.406Z,77.63
2023-01-12T19:06:39.288Z,87.03
2023-01-12T19:07:39.272Z,85.89
2023-01-12T19:09:39.252Z,83.82
2023-01-12T19:16:39.190Z,89.70
2023-01-12T19:17:41.811Z,90.64
2023-01-12T19:18:39.180Z,90.80
2023-01-12T19:19:39.174Z,91.05
2023-01-12T19:20:39.140Z,89.70
2023-01-12T19:22:39.121Z,90.74
2023-01-12T19:23:41.532Z,86.49
2023-01-12T19:25:39.098Z,90.12
2023-01-12T19:26:39.080Z,90.91
2023-01-12T19:37:38.968Z,89.70
2023-01-12T19:38:38.959Z,89.60
2023-01-12T19:39:39.317Z,89.50
2023-01-12T21:02:05.819Z,89.72
2023-01-12T21:45:05.359Z,91.16
2023-01-12T21:46:05.465Z,88.04
2023-01-12T21:53:05.287Z,81.66
2023-01-12T21:54:05.266Z,80.41
2023-01-12T21:55:05.266Z,78.23
2023-01-12T21:56:05.301Z,76.33
2023-01-12T22:46:04.794Z,94.57
2023-01-12T22:47:04.768Z,95.40
2023-01-12T22:48:04.732Z,93.84
2023-01-12T22:49:04.734Z,92.07
2023-01-12T23:01:04.648Z,94.82
2023-01-12T23:04:04.566Z,96.86
2023-01-12T23:06:04.545Z,95.66
